Time;durP1;ratioP1;P1;durP2;ratioP2;P2;SDS_P1;SDS_P2;PMS_P1;PMS_P2;Temp;Humidity;BMP_temperature;BMP_pressure;BME280_temperature;BME280_humidity;BME280_pressure;Samples;Min_cycle;Max_cycle;Signal;HPM_P1;HPM_P2
2022/10/13 00:01:45;;;;;;;;;;;6.80;99.90;;;;;;5036627;28;19909;-65
2022/10/13 00:04:10;;;;;;;;;;;6.80;99.90;;;;;;5054194;28;19920;-65
2022/10/13 00:06:36;;;;;;;;;;;6.90;99.90;;;;;;5054347;28;19915;-66
2022/10/13 00:09:02;;;;;;;;;;;6.80;99.90;;;;;;5036497;28;19909;-65
2022/10/13 00:11:28;;;;;;;;;;;6.90;99.90;;;;;;5054280;28;19909;-65
2022/10/13 00:13:55;;;;;;;;;;;6.90;99.90;;;;;;5054252;28;19913;-65
2022/10/13 00:16:21;;;;;;;;;;;6.90;99.90;;;;;;5054504;28;20258;-65
2022/10/13 00:18:46;;;;;;;;;;;6.90;99.90;;;;;;5054434;28;20042;-65
2022/10/13 00:21:13;;;;;;;;;;;6.90;99.90;;;;;;5054141;28;19951;-65
2022/10/13 00:23:39;;;;;;;;;;;7.00;99.90;;;;;;5054379;28;19999;-65
2022/10/13 00:26:06;;;;;;;;;;;7.00;99.90;;;;;;5054002;28;19936;-65
2022/10/13 00:28:32;;;;;;;;;;;7.10;99.90;;;;;;5054267;28;19909;-65
2022/10/13 00:30:57;;;;;;;;;;;7.10;99.90;;;;;;5054058;28;20425;-65
2022/10/13 00:33:23;;;;;;;;;;;7.20;99.90;;;;;;5054063;28;19919;-65
2022/10/13 00:35:48;;;;;;;;;;;7.20;99.90;;;;;;5053897;28;20304;-65
2022/10/13 00:38:15;;;;;;;;;;;7.30;99.90;;;;;;5053812;28;19909;-65
2022/10/13 00:40:42;;;;;;;;;;;7.30;99.90;;;;;;5035978;28;19912;-65
2022/10/13 00:43:14;;;;;;;;;;;7.30;99.90;;;;;;5053775;28;19958;-65
2022/10/13 00:45:39;;;;;;;;;;;7.30;99.90;;;;;;5053930;28;19971;-65
2022/10/13 00:48:05;;;;;;;;;;;7.20;99.90;;;;;;5052546;28;19909;-65
2022/10/13 00:50:34;;;;;;;;;;;7.30;99.90;;;;;;5053936;28;19909;-65
2022/10/13 00:53:00;;;;;;;;;;;7.30;99.90;;;;;;5053628;28;19909;-65
2022/10/13 00:55:29;;;;;;;;;;;7.30;99.90;;;;;;5053581;28;19916;-65
2022/10/13 00:57:57;;;;;;;;;;;7.30;99.90;;;;;;5053556;28;19955;-65
2022/10/13 01:00:23;;;;;;;;;;;7.30;99.90;;;;;;5035637;28;19909;-65
2022/10/13 01:02:48;;;;;;;;;;;7.30;99.90;;;;;;5053546;28;19915;-65
2022/10/13 01:05:14;;;;;;;;;;;7.30;99.90;;;;;;5053298;28;19924;-65
2022/10/13 01:07:40;;;;;;;;;;;7.30;99.90;;;;;;5053768;28;20369;-65
2022/10/13 01:10:05;;;;;;;;;;;7.30;99.90;;;;;;5053508;28;19908;-65
2022/10/13 01:12:38;;;;;;;;;;;7.30;99.90;;;;;;5052509;28;19961;-66
2022/10/13 01:15:09;;;;;;;;;;;7.40;99.90;;;;;;5053684;28;19913;-65
2022/10/13 01:17:40;;;;;;;;;;;7.40;99.90;;;;;;5053402;28;19908;-65
2022/10/13 01:20:18;;;;;;;;;;;7.40;99.90;;;;;;5053428;28;19908;-65
2022/10/13 01:23:00;;;;;;;;;;;7.40;99.90;;;;;;5053613;28;20286;-65
2022/10/13 01:25:33;;;;;;;;;;;7.40;99.90;;;;;;5053517;28;19963;-66
2022/10/13 01:28:19;;;;;;;;;;;7.40;99.90;;;;;;5053559;28;19962;-65
2022/10/13 01:30:47;;;;;;;;;;;7.50;99.90;;;;;;5053164;28;19915;-65
2022/10/13 01:33:33;;;;;;;;;;;7.50;99.90;;;;;;5053280;28;20395;-65
2022/10/13 01:36:05;;;;;;;;;;;7.50;99.90;;;;;;5053284;28;20286;-65
2022/10/13 01:38:33;;;;;;;;;;;7.40;99.90;;;;;;5053445;28;19909;-65
2022/10/13 01:41:03;;;;;;;;;;;7.40;99.90;;;;;;5053451;28;19909;-66
2022/10/13 01:43:31;;;;;;;;;;;7.40;99.90;;;;;;5053101;28;19909;-65
2022/10/13 01:46:02;;;;;;;;;;;7.30;99.90;;;;;;5053038;28;19919;-65
2022/10/13 01:48:28;;;;;;;;;;;7.30;99.90;;;;;;5053070;28;19955;-65
2022/10/13 01:50:55;;;;;;;;;;;7.30;99.90;;;;;;5053355;28;19913;-65
2022/10/13 01:53:21;;;;;;;;;;;7.30;99.90;;;;;;5053047;28;20410;-65
2022/10/13 01:55:48;;;;;;;;;;;7.30;99.90;;;;;;5052953;28;19916;-65
2022/10/13 01:58:14;;;;;;;;;;;7.30;99.90;;;;;;5053260;28;19909;-65
2022/10/13 02:00:42;;;;;;;;;;;7.40;99.90;;;;;;5053265;28;19920;-65
2022/10/13 02:03:16;;;;;;;;;;;7.40;99.90;;;;;;5053221;28;19909;-65
2022/10/13 02:05:48;;;;;;;;;;;7.40;99.90;;;;;;5051627;28;19928;-65
2022/10/13 02:08:17;;;;;;;;;;;7.50;99.90;;;;;;5053225;28;20285;-65
2022/10/13 02:13:25;;;;;;;;;;;7.60;99.90;;;;;;5071131;28;19919;-65
2022/10/13 02:15:53;;;;;;;;;;;7.60;99.90;;;;;;5071008;28;19917;-65
2022/10/13 02:18:20;;;;;;;;;;;7.60;99.90;;;;;;5070873;28;19911;-65
2022/10/13 02:20:46;;;;;;;;;;;7.70;99.90;;;;;;5071154;28;19909;-65
2022/10/13 02:23:13;;;;;;;;;;;7.70;99.90;;;;;;5071062;28;19920;-65
2022/10/13 02:25:40;;;;;;;;;;;7.70;99.90;;;;;;5070839;28;19916;-65
2022/10/13 02:28:05;;;;;;;;;;;7.80;99.90;;;;;;5070963;28;20389;-65
2022/10/13 02:30:32;;;;;;;;;;;7.80;99.90;;;;;;5070946;28;19909;-65
2022/10/13 02:32:59;;;;;;;;;;;7.70;99.90;;;;;;5070814;28;19919;-65
2022/10/13 02:35:24;;;;;;;;;;;7.70;99.90;;;;;;5070684;28;20417;-65
2022/10/13 02:37:50;;;;;;;;;;;7.80;99.90;;;;;;5070525;28;20026;-65
2022/10/13 02:40:16;;;;;;;;;;;7.80;99.90;;;;;;5070440;28;19908;-65
2022/10/13 02:42:41;;;;;;;;;;;7.80;99.90;;;;;;5070373;28;19908;-65
2022/10/13 02:45:07;;;;;;;;;;;7.80;99.90;;;;;;5070385;28;19908;-65
2022/10/13 02:47:33;;;;;;;;;;;7.80;99.90;;;;;;5070339;28;19915;-65
2022/10/13 02:49:58;;;;;;;;;;;7.80;99.90;;;;;;5070276;28;19915;-66
2022/10/13 02:52:26;;;;;;;;;;;7.80;99.90;;;;;;5070487;28;19923;-67
2022/10/13 02:54:52;;;;;;;;;;;7.80;99.90;;;;;;5085445;28;19915;-65
2022/10/13 02:57:18;;;;;;;;;;;7.80;99.90;;;;;;5070129;28;19909;-65
2022/10/13 02:59:43;;;;;;;;;;;7.80;99.90;;;;;;5070132;28;19955;-65
2022/10/13 03:02:09;;;;;;;;;;;7.70;99.90;;;;;;5070008;28;19916;-65
2022/10/13 03:04:34;;;;;;;;;;;7.70;99.90;;;;;;5070193;28;19913;-65
2022/10/13 03:07:00;;;;;;;;;;;7.70;99.90;;;;;;5070186;28;19916;-65
2022/10/13 03:09:26;;;;;;;;;;;7.80;99.90;;;;;;5070141;28;20333;-65
2022/10/13 03:11:51;;;;;;;;;;;7.80;99.90;;;;;;5077562;28;19955;-65
2022/10/13 03:14:16;;;;;;;;;;;7.90;99.90;;;;;;5090123;28;19915;-65
2022/10/13 03:16:42;;;;;;;;;;;7.90;99.90;;;;;;5090053;28;20388;-65
2022/10/13 03:19:08;;;;;;;;;;;8.00;99.90;;;;;;5089964;28;19961;-65
2022/10/13 03:21:33;;;;;;;;;;;8.00;99.90;;;;;;5089834;28;19908;-65
2022/10/13 03:23:58;;;;;;;;;;;8.00;99.90;;;;;;5080930;28;19932;-65
2022/10/13 03:26:24;;;;;;;;;;;8.00;99.90;;;;;;5076588;28;19962;-64
2022/10/13 03:28:50;;;;;;;;;;;8.00;99.90;;;;;;5076602;28;19908;-65
2022/10/13 03:31:16;;;;;;;;;;;8.10;99.90;;;;;;5076153;28;19962;-65
2022/10/13 03:33:42;;;;;;;;;;;8.10;99.90;;;;;;5076473;28;19915;-65
2022/10/13 03:36:07;;;;;;;;;;;8.10;99.90;;;;;;5076194;28;20343;-65
2022/10/13 03:38:34;;;;;;;;;;;8.10;99.90;;;;;;5076429;28;19908;-65
2022/10/13 03:41:03;;;;;;;;;;;8.10;99.90;;;;;;5076067;28;19915;-64
2022/10/13 03:43:29;;;;;;;;;;;8.10;99.90;;;;;;5075998;28;19920;-65
2022/10/13 03:45:56;;;;;;;;;;;8.10;99.90;;;;;;5058189;28;19920;-65
2022/10/13 03:48:21;;;;;;;;;;;8.10;99.90;;;;;;5076142;28;19915;-65
2022/10/13 03:50:47;;;;;;;;;;;8.10;99.90;;;;;;5076159;28;20269;-65
2022/10/13 03:53:12;;;;;;;;;;;8.10;99.90;;;;;;5075813;28;19919;-65
2022/10/13 03:55:38;;;;;;;;;;;8.10;99.90;;;;;;5075887;28;20369;-65
2022/10/13 03:58:03;;;;;;;;;;;8.10;99.90;;;;;;5075805;28;19932;-65
2022/10/13 04:00:29;;;;;;;;;;;8.10;99.90;;;;;;5075720;28;20012;-65
2022/10/13 04:02:54;;;;;;;;;;;8.00;99.90;;;;;;5075939;28;19913;-65
2022/10/13 04:05:20;;;;;;;;;;;8.10;99.90;;;;;;5057799;28;19962;-65
2022/10/13 04:07:45;;;;;;;;;;;8.00;99.90;;;;;;5075614;28;19909;-65
2022/10/13 04:10:11;;;;;;;;;;;8.00;99.90;;;;;;5057992;28;20258;-65
2022/10/13 04:12:36;;;;;;;;;;;8.00;99.90;;;;;;5075241;28;19927;-65
2022/10/13 04:15:03;;;;;;;;;;;8.00;99.90;;;;;;5075682;28;19909;-65
2022/10/13 04:17:28;;;;;;;;;;;8.00;99.90;;;;;;5075406;28;19909;-65
2022/10/13 04:19:54;;;;;;;;;;;8.10;99.90;;;;;;5075598;28;19999;-65
2022/10/13 04:22:19;;;;;;;;;;;8.10;99.90;;;;;;5075305;28;19909;-65
2022/10/13 04:24:45;;;;;;;;;;;8.10;99.90;;;;;;5075271;28;19908;-65
2022/10/13 04:27:11;;;;;;;;;;;8.20;99.90;;;;;;5075465;28;19962;-65
2022/10/13 04:29:36;;;;;;;;;;;8.20;99.90;;;;;;5075136;28;20273;-65
2022/10/13 04:32:01;;;;;;;;;;;8.20;99.90;;;;;;5075308;28;19912;-65
2022/10/13 04:34:27;;;;;;;;;;;8.30;99.90;;;;;;5074631;28;19908;-65
2022/10/13 04:36:53;;;;;;;;;;;8.30;99.90;;;;;;5074843;28;19968;-65
2022/10/13 04:39:18;;;;;;;;;;;8.30;99.90;;;;;;5074961;28;19912;-65
2022/10/13 04:41:44;;;;;;;;;;;8.30;99.90;;;;;;5075137;28;19908;-65
2022/10/13 04:44:09;;;;;;;;;;;8.30;99.90;;;;;;5075111;28;19909;-65
2022/10/13 04:46:35;;;;;;;;;;;8.30;99.90;;;;;;5075053;28;19970;-65
2022/10/13 04:49:00;;;;;;;;;;;8.20;99.90;;;;;;5074758;28;19965;-65
2022/10/13 04:51:26;;;;;;;;;;;8.20;99.90;;;;;;5074933;28;19920;-65
2022/10/13 04:53:53;;;;;;;;;;;8.20;99.90;;;;;;5056703;28;19909;-65
2022/10/13 04:56:18;;;;;;;;;;;8.30;99.90;;;;;;5074882;28;19908;-65
2022/10/13 04:58:44;;;;;;;;;;;8.20;99.90;;;;;;5074466;28;20327;-65
2022/10/13 05:01:12;;;;;;;;;;;8.20;99.90;;;;;;5074501;28;19908;-65
2022/10/13 05:03:37;;;;;;;;;;;8.20;99.90;;;;;;5074507;28;19908;-65
2022/10/13 05:06:03;;;;;;;;;;;8.30;99.90;;;;;;5074654;28;19908;-65
2022/10/13 05:08:28;;;;;;;;;;;8.30;99.90;;;;;;5074584;28;19947;-65
2022/10/13 05:10:56;;;;;;;;;;;8.20;99.90;;;;;;5074393;28;19913;-65
2022/10/13 05:13:22;;;;;;;;;;;8.20;99.90;;;;;;5074246;28;19927;-65
2022/10/13 05:15:47;;;;;;;;;;;8.20;99.90;;;;;;5074491;28;19912;-65
2022/10/13 05:18:13;;;;;;;;;;;8.20;99.90;;;;;;5056388;28;19908;-65
2022/10/13 05:20:38;;;;;;;;;;;8.20;99.90;;;;;;5074375;28;19908;-65
2022/10/13 05:23:04;;;;;;;;;;;8.30;99.90;;;;;;5074398;28;19936;-65
2022/10/13 05:25:29;;;;;;;;;;;8.30;99.90;;;;;;5056209;28;20385;-65
2022/10/13 05:27:54;;;;;;;;;;;8.30;99.90;;;;;;5074036;28;19913;-65
2022/10/13 05:30:20;;;;;;;;;;;8.40;99.90;;;;;;5074008;28;20438;-65
2022/10/13 05:32:45;;;;;;;;;;;8.40;99.90;;;;;;5074165;28;20320;-65
2022/10/13 05:35:11;;;;;;;;;;;8.50;99.90;;;;;;5056043;28;19912;-65
2022/10/13 05:37:36;;;;;;;;;;;8.50;99.90;;;;;;5074099;28;19959;-65
2022/10/13 05:40:02;;;;;;;;;;;8.50;99.90;;;;;;5074087;28;19912;-65
2022/10/13 05:42:28;;;;;;;;;;;8.50;99.90;;;;;;5073785;28;19914;-65
2022/10/13 05:44:53;;;;;;;;;;;8.60;99.90;;;;;;5074007;28;19908;-67
2022/10/13 05:47:21;;;;;;;;;;;8.60;99.90;;;;;;5073799;28;20260;-67
2022/10/13 05:49:47;;;;;;;;;;;8.60;99.90;;;;;;5074022;28;20300;-65
2022/10/13 05:52:12;;;;;;;;;;;8.70;99.90;;;;;;5073666;28;19912;-67
2022/10/13 05:54:40;;;;;;;;;;;8.60;99.90;;;;;;5073968;28;20421;-67
2022/10/13 05:57:11;;;;;;;;;;;8.60;99.90;;;;;;5073932;28;19912;-67
2022/10/13 05:59:38;;;;;;;;;;;8.70;99.90;;;;;;5073642;28;19991;-65
2022/10/13 06:02:05;;;;;;;;;;;8.70;99.90;;;;;;5073653;28;19924;-65
2022/10/13 06:04:33;;;;;;;;;;;8.60;99.90;;;;;;5073564;28;19916;-65
2022/10/13 06:06:58;;;;;;;;;;;8.60;99.90;;;;;;5073561;28;19913;-65
2022/10/13 06:09:25;;;;;;;;;;;8.70;99.90;;;;;;5055552;28;19962;-65
2022/10/13 06:11:51;;;;;;;;;;;8.70;99.90;;;;;;5073316;28;19964;-65
2022/10/13 06:14:16;;;;;;;;;;;8.70;99.90;;;;;;5067752;28;20392;-65
2022/10/13 06:16:42;;;;;;;;;;;8.80;99.90;;;;;;5070765;28;20021;-65
2022/10/13 06:19:07;;;;;;;;;;;8.80;99.90;;;;;;5059975;28;19913;-66
2022/10/13 06:21:33;;;;;;;;;;;8.80;99.90;;;;;;5072439;28;19912;-65
2022/10/13 06:24:00;;;;;;;;;;;8.90;99.90;;;;;;5072834;28;19999;-65
2022/10/13 06:26:25;;;;;;;;;;;8.90;99.90;;;;;;5073157;28;19913;-65
2022/10/13 06:28:51;;;;;;;;;;;9.00;99.90;;;;;;5084848;28;20011;-65
2022/10/13 06:31:19;;;;;;;;;;;9.00;99.90;;;;;;5073034;28;19962;-68
2022/10/13 06:33:45;;;;;;;;;;;9.10;99.90;;;;;;5073456;28;19919;-65
2022/10/13 06:36:10;;;;;;;;;;;9.20;99.90;;;;;;5073116;28;20003;-66
2022/10/13 06:38:35;;;;;;;;;;;9.30;99.90;;;;;;5073371;28;19908;-66
2022/10/13 06:41:01;;;;;;;;;;;9.40;99.90;;;;;;5073103;28;19943;-65
2022/10/13 06:43:27;;;;;;;;;;;9.40;99.90;;;;;;5072991;28;19909;-65
2022/10/13 06:45:56;;;;;;;;;;;9.50;99.90;;;;;;5072837;28;19919;-65
2022/10/13 06:48:21;;;;;;;;;;;9.60;99.90;;;;;;5073268;28;20000;-65
2022/10/13 06:50:46;;;;;;;;;;;9.70;99.90;;;;;;5066884;28;19952;-65
2022/10/13 06:53:12;;;;;;;;;;;9.70;99.90;;;;;;5058590;28;19931;-65
2022/10/13 06:55:38;;;;;;;;;;;9.80;99.90;;;;;;5071134;28;19913;-66
2022/10/13 06:58:04;;;;;;;;;;;9.80;99.90;;;;;;5061898;28;19935;-66
2022/10/13 07:00:29;;;;;;;;;;;10.00;99.90;;;;;;5042298;28;20315;-65
2022/10/13 07:02:55;;;;;;;;;;;10.00;99.90;;;;;;5069746;28;19912;-66
2022/10/13 07:05:20;;;;;;;;;;;10.00;99.90;;;;;;5069521;28;19912;-65
2022/10/13 07:07:46;;;;;;;;;;;10.10;99.90;;;;;;5067321;28;19998;-66
2022/10/13 07:10:11;;;;;;;;;;;10.10;99.90;;;;;;5069496;28;19920;-65
2022/10/13 07:12:37;;;;;;;;;;;10.20;99.90;;;;;;5072249;28;20417;-65
2022/10/13 07:15:02;;;;;;;;;;;10.20;99.90;;;;;;5073549;28;19958;-65
2022/10/13 07:17:28;;;;;;;;;;;10.20;99.90;;;;;;5069737;28;19920;-65
2022/10/13 07:19:53;;;;;;;;;;;10.30;99.90;;;;;;5075036;28;19919;-65
2022/10/13 07:22:18;;;;;;;;;;;10.40;99.90;;;;;;5063697;28;19920;-65
2022/10/13 07:24:44;;;;;;;;;;;10.40;99.90;;;;;;5068989;28;19928;-65
2022/10/13 07:27:09;;;;;;;;;;;10.50;99.90;;;;;;5072539;28;19958;-65
2022/10/13 07:29:35;;;;;;;;;;;10.60;99.90;;;;;;5069997;28;20377;-65
2022/10/13 07:32:00;;;;;;;;;;;10.70;99.90;;;;;;5056538;28;20125;-65
2022/10/13 07:34:26;;;;;;;;;;;10.80;99.90;;;;;;5074846;28;19916;-66
2022/10/13 07:36:51;;;;;;;;;;;11.00;99.90;;;;;;5072686;28;20189;-65
2022/10/13 07:39:17;;;;;;;;;;;11.20;99.90;;;;;;5067647;28;20373;-65
2022/10/13 07:41:42;;;;;;;;;;;11.40;99.90;;;;;;5055763;28;19938;-67
2022/10/13 07:44:08;;;;;;;;;;;12.00;99.90;;;;;;5072146;28;19912;-67
2022/10/13 07:46:33;;;;;;;;;;;12.70;99.90;;;;;;5074696;28;20003;-68
2022/10/13 07:48:59;;;;;;;;;;;13.80;99.90;;;;;;5074815;28;19909;-67
2022/10/13 07:51:24;;;;;;;;;;;15.10;99.90;;;;;;5056383;28;20389;-67
2022/10/13 07:53:50;;;;;;;;;;;16.10;99.90;;;;;;5071790;28;19991;-65
2022/10/13 07:56:15;;;;;;;;;;;16.80;99.90;;;;;;5072898;28;19915;-67
2022/10/13 07:58:42;;;;;;;;;;;17.10;99.90;;;;;;5075897;28;19962;-66
2022/10/13 08:01:08;;;;;;;;;;;17.40;99.90;;;;;;5074076;28;19908;-66
2022/10/13 08:03:34;;;;;;;;;;;17.60;99.90;;;;;;5073945;28;20418;-66
2022/10/13 08:06:00;;;;;;;;;;;17.40;99.90;;;;;;5073285;28;19912;-66
2022/10/13 08:08:26;;;;;;;;;;;17.10;99.90;;;;;;5068407;28;20319;-66
2022/10/13 08:10:51;;;;;;;;;;;17.20;99.90;;;;;;5054964;28;19908;-66
2022/10/13 08:13:17;;;;;;;;;;;17.70;99.90;;;;;;5055094;28;19927;-66
2022/10/13 08:15:43;;;;;;;;;;;17.80;99.90;;;;;;5068281;28;19983;-66
2022/10/13 08:18:09;;;;;;;;;;;17.80;99.90;;;;;;5066002;28;19958;-66
2022/10/13 08:20:38;;;;;;;;;;;18.10;99.90;;;;;;5064586;28;19987;-66
2022/10/13 08:23:03;;;;;;;;;;;17.80;99.90;;;;;;5061154;28;19909;-66
2022/10/13 08:25:29;;;;;;;;;;;17.50;99.90;;;;;;5048236;28;19986;-67
2022/10/13 08:27:54;;;;;;;;;;;17.30;99.90;;;;;;5069697;28;19970;-66
2022/10/13 08:30:20;;;;;;;;;;;17.10;99.90;;;;;;5073835;28;19954;-66
2022/10/13 08:32:45;;;;;;;;;;;17.20;99.90;;;;;;5073825;28;19919;-66
2022/10/13 08:35:11;;;;;;;;;;;16.80;99.90;;;;;;5071304;28;19924;-66
2022/10/13 08:37:36;;;;;;;;;;;16.70;99.90;;;;;;5069213;28;19909;-66
2022/10/13 08:40:02;;;;;;;;;;;16.60;99.90;;;;;;5068042;28;19928;-67
2022/10/13 08:42:28;;;;;;;;;;;16.40;99.90;;;;;;5070969;28;19914;-66
2022/10/13 08:44:55;;;;;;;;;;;16.20;99.90;;;;;;5067565;28;19909;-66
2022/10/13 08:47:40;;;;;;;;;;;16.10;99.90;;;;;;5072583;28;19908;-66
2022/10/13 08:50:11;;;;;;;;;;;16.10;99.90;;;;;;5060153;28;19912;-66
2022/10/13 08:52:53;;;;;;;;;;;16.20;99.90;;;;;;5074195;28;20342;-66
2022/10/13 08:55:25;;;;;;;;;;;16.20;99.90;;;;;;5074426;28;19919;-66
2022/10/13 08:57:50;;;;;;;;;;;16.00;99.90;;;;;;5074409;28;19934;-66
2022/10/13 09:00:16;;;;;;;;;;;15.90;99.90;;;;;;5074351;28;19908;-65
2022/10/13 09:02:42;;;;;;;;;;;15.70;99.90;;;;;;5074365;28;20007;-66
2022/10/13 09:05:11;;;;;;;;;;;15.80;99.90;;;;;;5074340;28;19948;-66
2022/10/13 09:07:38;;;;;;;;;;;15.70;99.90;;;;;;5075883;28;20328;-66
2022/10/13 09:10:03;;;;;;;;;;;15.80;99.90;;;;;;5074129;28;20373;-65
2022/10/13 09:12:30;;;;;;;;;;;15.80;99.90;;;;;;5055551;28;19934;-66
2022/10/13 09:15:04;;;;;;;;;;;15.80;99.90;;;;;;5073359;28;20016;-66
2022/10/13 09:17:31;;;;;;;;;;;15.80;99.90;;;;;;5073651;28;19951;-66
2022/10/13 09:20:06;;;;;;;;;;;15.80;99.90;;;;;;5073814;28;20404;-66
2022/10/13 09:22:33;;;;;;;;;;;15.80;99.90;;;;;;5055437;28;19960;-66
2022/10/13 09:27:48;;;;;;;;;;;15.70;99.90;;;;;;5070888;28;19919;-65
2022/10/13 09:30:24;;;;;;;;;;;15.80;99.90;;;;;;5059237;28;20007;-65
2022/10/13 09:32:49;;;;;;;;;;;16.00;99.90;;;;;;5050631;28;19913;-66
2022/10/13 09:35:22;;;;;;;;;;;15.90;99.90;;;;;;5050146;28;19959;-66
2022/10/13 09:38:03;;;;;;;;;;;15.90;99.90;;;;;;5050964;28;20324;-66
2022/10/13 09:40:31;;;;;;;;;;;15.90;99.90;;;;;;5043451;28;20000;-66
2022/10/13 09:42:57;;;;;;;;;;;15.80;99.90;;;;;;5044601;28;20281;-66
2022/10/13 09:45:24;;;;;;;;;;;15.90;99.90;;;;;;5048321;28;19934;-66
2022/10/13 09:47:52;;;;;;;;;;;15.80;99.90;;;;;;5035890;28;19909;-66
2022/10/13 09:50:21;;;;;;;;;;;15.80;99.90;;;;;;5049532;28;20290;-65
2022/10/13 09:52:47;;;;;;;;;;;15.90;99.90;;;;;;5052679;28;20412;-65
2022/10/13 09:55:32;;;;;;;;;;;15.80;99.90;;;;;;5048171;28;19913;-66
2022/10/13 09:58:03;;;;;;;;;;;15.80;99.90;;;;;;5045647;28;20873;-66
2022/10/13 10:00:29;;;;;;;;;;;15.90;99.90;;;;;;5044162;28;19955;-66
2022/10/13 10:02:57;;;;;;;;;;;16.00;99.90;;;;;;5038883;28;20329;-66
2022/10/13 10:05:28;;;;;;;;;;;16.00;99.90;;;;;;5045300;28;19909;-65
2022/10/13 10:07:56;;;;;;;;;;;16.00;99.90;;;;;;5037725;28;19928;-66
2022/10/13 10:10:27;;;;;;;;;;;16.00;99.90;;;;;;5040400;28;19915;-65
2022/10/13 10:12:52;;;;;;;;;;;16.00;99.90;;;;;;5043778;28;19960;-66
2022/10/13 10:15:22;;;;;;;;;;;16.10;99.90;;;;;;5040702;28;20449;-66
2022/10/13 10:17:54;;;;;;;;;;;16.40;99.90;;;;;;5036348;28;19943;-66
2022/10/13 10:20:40;;;;;;;;;;;16.60;99.90;;;;;;5034398;28;19920;-66
2022/10/13 10:23:11;;;;;;;;;;;16.70;99.90;;;;;;5048144;28;20019;-66
2022/10/13 10:25:40;;;;;;;;;;;16.80;99.90;;;;;;5049721;28;20509;-66
2022/10/13 10:28:17;;;;;;;;;;;16.80;99.90;;;;;;5069718;28;19941;-66
2022/10/13 10:30:50;;;;;;;;;;;17.00;99.90;;;;;;5070667;28;20010;-67
2022/10/13 10:33:18;;;;;;;;;;;17.30;99.90;;;;;;5069347;28;19955;-66
2022/10/13 10:35:48;;;;;;;;;;;17.40;99.90;;;;;;5067163;28;19927;-66
2022/10/13 10:38:34;;;;;;;;;;;17.30;99.90;;;;;;5063045;28;20369;-66
2022/10/13 10:41:22;;;;;;;;;;;17.20;99.90;;;;;;5056916;28;19913;-66
2022/10/13 10:43:51;;;;;;;;;;;17.20;99.90;;;;;;5058992;28;19955;-66
2022/10/13 10:46:19;;;;;;;;;;;17.40;99.90;;;;;;5057026;28;20373;-66
2022/10/13 10:48:46;;;;;;;;;;;17.60;99.90;;;;;;5059975;28;19999;-66
2022/10/13 10:51:12;;;;;;;;;;;18.00;99.90;;;;;;5058026;28;19966;-66
2022/10/13 10:53:50;;;;;;;;;;;18.80;99.90;;;;;;5060127;28;20337;-66
2022/10/13 10:56:20;;;;;;;;;;;19.20;99.90;;;;;;5068049;28;20019;-66
2022/10/13 10:58:52;;;;;;;;;;;19.20;99.90;;;;;;5066833;28;20334;-66
2022/10/13 11:01:25;;;;;;;;;;;18.90;99.90;;;;;;5059190;28;19942;-65
2022/10/13 11:04:10;;;;;;;;;;;19.10;99.90;;;;;;5055297;28;19912;-66
2022/10/13 11:06:36;;;;;;;;;;;19.30;99.90;;;;;;5065490;28;19918;-66
2022/10/13 11:09:03;;;;;;;;;;;19.30;99.90;;;;;;5064516;28;20007;-64
2022/10/13 11:11:29;;;;;;;;;;;19.10;99.90;;;;;;5063949;28;19919;-66
2022/10/13 11:13:57;;;;;;;;;;;19.10;99.90;;;;;;5061265;28;20273;-68
2022/10/13 11:19:24;;;;;;;;;;;18.80;99.90;;;;;;5061807;28;19917;-67
2022/10/13 11:22:00;;;;;;;;;;;18.80;99.90;;;;;;5065412;28;19921;-67
2022/10/13 11:24:43;;;;;;;;;;;18.80;99.90;;;;;;5064226;28;19927;-67
2022/10/13 11:27:29;;;;;;;;;;;18.70;99.90;;;;;;5052283;28;19920;-68
2022/10/13 11:29:57;;;;;;;;;;;18.60;99.90;;;;;;5060519;28;19955;-68
2022/10/13 11:37:48;;;;;;;;;;;18.50;99.90;;;;;;5064604;28;20408;-67
2022/10/13 11:43:01;;;;;;;;;;;19.00;99.90;;;;;;5071663;28;19913;-65
2022/10/13 11:45:31;;;;;;;;;;;19.00;99.90;;;;;;5069952;28;20015;-65
2022/10/13 11:48:16;;;;;;;;;;;18.80;99.90;;;;;;5048320;28;19913;-65
2022/10/13 11:51:01;;;;;;;;;;;18.80;99.90;;;;;;5048962;28;20004;-66
2022/10/13 11:53:31;;;;;;;;;;;19.10;99.90;;;;;;5050560;28;19913;-66
2022/10/13 11:55:57;;;;;;;;;;;19.00;99.90;;;;;;5050334;28;19945;-65
2022/10/13 11:58:24;;;;;;;;;;;18.90;99.90;;;;;;5050761;28;19963;-66
2022/10/13 12:00:51;;;;;;;;;;;19.30;99.90;;;;;;5050017;28;19913;-66
2022/10/13 12:03:21;;;;;;;;;;;19.40;99.90;;;;;;5050649;28;19913;-66
2022/10/13 12:05:47;;;;;;;;;;;19.00;99.90;;;;;;5050661;28;20434;-66
2022/10/13 12:08:13;;;;;;;;;;;18.90;99.90;;;;;;5050486;28;20370;-66
2022/10/13 12:10:38;;;;;;;;;;;19.20;99.90;;;;;;5050193;28;19913;-66
2022/10/13 12:13:04;;;;;;;;;;;19.30;99.90;;;;;;5049943;28;19939;-66
2022/10/13 12:15:34;;;;;;;;;;;19.40;99.90;;;;;;5048408;28;19909;-66
2022/10/13 12:17:59;;;;;;;;;;;19.60;99.90;;;;;;5050548;28;20286;-66
2022/10/13 12:20:26;;;;;;;;;;;19.80;99.90;;;;;;5050015;28;19909;-66
2022/10/13 12:22:53;;;;;;;;;;;19.60;99.90;;;;;;5048679;28;20291;-66
2022/10/13 12:25:20;;;;;;;;;;;19.60;99.90;;;;;;5051671;28;19909;-66
2022/10/13 12:27:47;;;;;;;;;;;19.70;99.90;;;;;;5058693;28;19909;-66
2022/10/13 12:30:23;;;;;;;;;;;19.90;99.90;;;;;;5051407;28;20286;-66
2022/10/13 12:32:50;;;;;;;;;;;19.80;99.90;;;;;;5054345;28;19936;-66
2022/10/13 12:35:18;;;;;;;;;;;19.50;99.90;;;;;;5065040;28;19916;-66
2022/10/13 12:37:44;;;;;;;;;;;19.30;99.90;;;;;;5064648;28;19944;-65
2022/10/13 12:40:13;;;;;;;;;;;19.20;99.90;;;;;;5062310;28;19909;-66
2022/10/13 12:42:38;;;;;;;;;;;19.10;99.90;;;;;;5078091;28;19924;-65
2022/10/13 12:45:04;;;;;;;;;;;19.10;99.90;;;;;;5079219;28;19939;-66
2022/10/13 12:53:08;;;;;;;;;;;18.80;99.90;;;;;;5092595;27;19917;-66
2022/10/13 12:55:37;;;;;;;;;;;18.70;99.90;;;;;;5085099;28;19921;-66
2022/10/13 12:58:02;;;;;;;;;;;18.50;99.90;;;;;;5091889;28;20281;-67
2022/10/13 13:00:28;;;;;;;;;;;18.50;99.90;;;;;;5101683;28;19916;-67
2022/10/13 13:03:03;;;;;;;;;;;18.30;99.90;;;;;;5090172;28;19912;-67
2022/10/13 13:05:31;;;;;;;;;;;18.40;99.90;;;;;;5083193;28;20374;-67
2022/10/13 13:07:57;;;;;;;;;;;18.30;99.90;;;;;;5081236;28;20019;-66
2022/10/13 13:10:22;;;;;;;;;;;18.30;99.90;;;;;;5089404;28;20026;-66
2022/10/13 13:12:48;;;;;;;;;;;18.30;99.90;;;;;;5090493;28;20284;-66
2022/10/13 13:15:18;;;;;;;;;;;18.20;99.90;;;;;;5090906;28;19955;-67
2022/10/13 13:17:44;;;;;;;;;;;18.20;99.90;;;;;;5089916;28;19912;-66
2022/10/13 13:20:27;;;;;;;;;;;18.10;99.90;;;;;;5090409;28;19912;-67
2022/10/13 13:22:53;;;;;;;;;;;17.80;99.90;;;;;;5089762;28;20369;-67
2022/10/13 13:25:18;;;;;;;;;;;17.80;99.90;;;;;;5089933;28;20270;-66
2022/10/13 13:27:44;;;;;;;;;;;17.80;99.90;;;;;;5086477;28;19919;-67
2022/10/13 13:30:11;;;;;;;;;;;17.70;99.90;;;;;;5077975;28;19916;-67
2022/10/13 13:32:36;;;;;;;;;;;17.60;99.90;;;;;;5086393;28;19916;-67
2022/10/13 13:35:02;;;;;;;;;;;17.50;99.90;;;;;;5093013;28;19908;-67
2022/10/13 13:37:48;;;;;;;;;;;17.50;99.90;;;;;;5089506;28;19917;-67
2022/10/13 13:40:15;;;;;;;;;;;17.40;99.90;;;;;;5108584;28;20367;-67
2022/10/13 13:42:41;;;;;;;;;;;17.30;99.90;;;;;;5087651;28;20010;-67
2022/10/13 13:45:06;;;;;;;;;;;17.30;99.90;;;;;;5086289;28;19995;-67
2022/10/13 13:47:32;;;;;;;;;;;17.30;99.90;;;;;;5094022;28;19912;-67
2022/10/13 13:49:59;;;;;;;;;;;17.20;99.90;;;;;;5098676;28;19973;-67
2022/10/13 13:52:24;;;;;;;;;;;17.10;99.90;;;;;;5114513;28;20323;-67
2022/10/13 13:54:50;;;;;;;;;;;17.10;99.90;;;;;;5116236;28;19916;-67
2022/10/13 13:57:16;;;;;;;;;;;17.00;99.90;;;;;;5110715;28;19913;-67
2022/10/13 13:59:42;;;;;;;;;;;17.00;99.90;;;;;;5124508;28;19999;-67
2022/10/13 14:02:12;;;;;;;;;;;16.90;99.90;;;;;;5112120;28;19923;-67
2022/10/13 14:04:38;;;;;;;;;;;16.80;99.90;;;;;;5109153;28;20035;-67
2022/10/13 14:07:03;;;;;;;;;;;16.70;99.90;;;;;;5103552;28;19977;-68
2022/10/13 14:09:29;;;;;;;;;;;16.70;99.90;;;;;;5102740;28;19912;-67
2022/10/13 14:11:54;;;;;;;;;;;16.70;99.90;;;;;;5098571;28;19916;-66
2022/10/13 14:14:20;;;;;;;;;;;16.60;99.90;;;;;;5098585;28;19908;-66
2022/10/13 14:16:45;;;;;;;;;;;16.60;99.90;;;;;;5108315;28;19916;-67
2022/10/13 14:19:11;;;;;;;;;;;16.60;99.90;;;;;;5099279;28;20428;-67
2022/10/13 14:21:36;;;;;;;;;;;16.60;99.90;;;;;;5103696;28;19956;-67
2022/10/13 14:24:02;;;;;;;;;;;16.60;99.90;;;;;;5098924;28;20009;-67
2022/10/13 14:26:28;;;;;;;;;;;16.50;99.90;;;;;;5094304;28;20387;-68
2022/10/13 14:28:53;;;;;;;;;;;16.20;99.90;;;;;;5094305;28;19915;-67
2022/10/13 14:31:19;;;;;;;;;;;16.00;99.90;;;;;;5094241;28;20426;-67
2022/10/13 14:33:44;;;;;;;;;;;15.80;99.90;;;;;;5093937;28;20384;-67
2022/10/13 14:36:09;;;;;;;;;;;15.60;99.90;;;;;;5093954;28;19965;-67
2022/10/13 14:38:35;;;;;;;;;;;15.50;99.90;;;;;;5093902;28;19908;-67
2022/10/13 14:41:01;;;;;;;;;;;15.30;99.90;;;;;;5093827;28;19908;-66
2022/10/13 14:43:27;;;;;;;;;;;15.20;99.90;;;;;;5077540;28;19912;-66
2022/10/13 14:45:53;;;;;;;;;;;15.10;99.90;;;;;;5095784;28;20430;-66
2022/10/13 14:48:19;;;;;;;;;;;15.10;99.90;;;;;;5096059;28;20373;-66